Rhonda Lamulle — WDC8441 — position and weather

sailwx.info

Track history (hours):
 
Tides and Currents Weather Stations Pressure Air Temp Water Temp Dewpoint Dewpoint Depression Visibility Wind Speed Wind Dir Waves Ship Positions

Rhonda Lamulle

Owner: Florida Marine Transporters, Inc., Mandeville, LA. More information available from US FCC via Universal Licensing System and Coast Guard Vessel Documentation Center.

Last reported at 2015-Jun-25 21:21 UTC. Time now 2015-Jul-01 21:12 UTC.
Position N 30°24' W 086°54'.

Length 13 m; draft 3 m.

Type: Towing. MMSI: 367087104.

Date/timePositionNaut miles runAvg speedWind from/ knotsBaromVisibWave heightAir tempDewpointWater temp
2015-Jun-25 21:21N 30°24' W 086°54'5 6.1
2015-Jun-25 20:33N 30°24' W 086°48'8 0.3
2015-Jun-24 22:18N 30°24' W 086°39'3 4.3
2015-Jun-24 21:33N 30°24' W 086°36'6 5.7
2015-Jun-24 20:33N 30°26' W 086°29'3 2.8
2015-Jun-24 19:34N 30°29' W 086°29'0 0.0
2015-Jun-24 18:34N 30°29' W 086°29'0 0.0
2015-Jun-24 17:33N 30°29' W 086°29'0 0.0
2015-Jun-24 16:34N 30°29' W 086°29'0 0.0
2015-Jun-24 15:34N 30°29' W 086°29'0 0.0
2015-Jun-24 14:34N 30°29' W 086°29'0 0.0
2015-Jun-24 13:34N 30°29' W 086°29'0 0.0
2015-Jun-24 12:34N 30°29' W 086°29'0 0.0
2015-Jun-24 11:34N 30°29' W 086°29'0 0.3
2015-Jun-24 10:34N 30°29' W 086°29'3 2.9
2015-Jun-24 09:34N 30°27' W 086°27'6 6.0
2015-Jun-24 08:33N 30°26' W 086°20'6 5.8
2015-Jun-24 07:33N 30°26' W 086°13'0 0.0
2015-Jun-22 13:13N 30°26' W 086°13'4 5.9
2015-Jun-22 12:33N 30°26' W 086°18'6 6.3
2015-Jun-22 11:34N 30°26' W 086°25'6 5.9
2015-Jun-22 10:34N 30°25' W 086°32'5 5.4
2015-Jun-22 09:33N 30°24' W 086°38'5 4.6
2015-Jun-22 08:28N 30°24' W 086°44'5 5.4
2015-Jun-22 07:33N 30°24' W 086°50'  
2015-Jun-17 07:14N 30°24' W 086°54'4 5.8
2015-Jun-17 06:33N 30°24' W 086°50'11 0.3
2015-Jun-15 23:32N 30°24' W 086°37'5 5.5
2015-Jun-15 22:33N 30°25' W 086°31'5 4.7
2015-Jun-15 21:33N 30°29' W 086°29'  
Track history (hours):
 
Tides and Currents Weather Stations Pressure Air Temp Water Temp Dewpoint Dewpoint Depression Visibility Wind Speed Wind Dir Waves Ship Positions

Rhonda Lamulle

Owner: Florida Marine Transporters, Inc., Mandeville, LA. More information available from US FCC via Universal Licensing System and Coast Guard Vessel Documentation Center.

Last reported at 2015-Jun-25 21:21 UTC. Time now 2015-Jul-01 21:12 UTC.
Position N 30°24' W 086°54'.

Length 13 m; draft 3 m.

Type: Towing. MMSI: 367087104.

Date/timePositionNaut miles runAvg speedWind from/ knotsBaromVisibWave heightAir tempDewpointWater temp
2015-Jun-25 21:21N 30°24' W 086°54'5 6.1
2015-Jun-25 20:33N 30°24' W 086°48'8 0.3
2015-Jun-24 22:18N 30°24' W 086°39'3 4.3
2015-Jun-24 21:33N 30°24' W 086°36'6 5.7
2015-Jun-24 20:33N 30°26' W 086°29'3 2.8
2015-Jun-24 19:34N 30°29' W 086°29'0 0.0
2015-Jun-24 18:34N 30°29' W 086°29'0 0.0
2015-Jun-24 17:33N 30°29' W 086°29'0 0.0
2015-Jun-24 16:34N 30°29' W 086°29'0 0.0
2015-Jun-24 15:34N 30°29' W 086°29'0 0.0
2015-Jun-24 14:34N 30°29' W 086°29'0 0.0
2015-Jun-24 13:34N 30°29' W 086°29'0 0.0
2015-Jun-24 12:34N 30°29' W 086°29'0 0.0
2015-Jun-24 11:34N 30°29' W 086°29'0 0.3
2015-Jun-24 10:34N 30°29' W 086°29'3 2.9
2015-Jun-24 09:34N 30°27' W 086°27'6 6.0
2015-Jun-24 08:33N 30°26' W 086°20'6 5.8
2015-Jun-24 07:33N 30°26' W 086°13'0 0.0
2015-Jun-22 13:13N 30°26' W 086°13'4 5.9
2015-Jun-22 12:33N 30°26' W 086°18'6 6.3
2015-Jun-22 11:34N 30°26' W 086°25'6 5.9
2015-Jun-22 10:34N 30°25' W 086°32'5 5.4
2015-Jun-22 09:33N 30°24' W 086°38'5 4.6
2015-Jun-22 08:28N 30°24' W 086°44'5 5.4
2015-Jun-22 07:33N 30°24' W 086°50'  
2015-Jun-17 07:14N 30°24' W 086°54'4 5.8
2015-Jun-17 06:33N 30°24' W 086°50'11 0.3
2015-Jun-15 23:32N 30°24' W 086°37'5 5.5
2015-Jun-15 22:33N 30°25' W 086°31'5 4.7
2015-Jun-15 21:33N 30°29' W 086°29'  

Dump ship's entire track history